Main page
METAR-TAF:

METAR-TAF

Airports :

Heraklion International Airport

Heraklion, Greece

latitude: 35-20N, longitude: 025-11E, elevation: 37 m

Current weather observation

The report was made 18 minutes ago, at 08:50 UTC
Wind 17 kt from the Northwest
Temperature 28°C
Humidity 58%
Pressure 1013 hPa
Visibility 10 km or more
Few clouds at a height of 2500 ft

METAR: LGIR 220850Z 31017KT 9999 FEW025 28/19 Q1013 NOSIG

Time: 12:08 (09:08 UTC)

Forecast

The report was made 4 hours and 8 minutes ago, at 05:00 UTC
Forecast valid from 22 at 06 UTC to 23 at 06 UTC
Wind 18 kt from the West/Northwest
Visibility 10 km or more
Few clouds at a height of 2500 ft

TAF: LGIR 220500Z 2206/2306 29018KT 9999 FEW025

Weather observations and forecasts of more than 4000 airports (METAR and TAF reports).

The available stations are represented by yellow and red dots on the map.

Hover mouse over dot to see the name of the station.

Then click to see weather observations and forecasts.

To change the map : click on the green buttons with a black cross to zoom in, on the green button with a dash to zoom out, or on the green arrows for adjacent maps.


METAR-TAF: